Time;durP1;ratioP1;P1;durP2;ratioP2;P2;SDS_P1;SDS_P2;PMS_P1;PMS_P2;Temp;Humidity;BMP_temperature;BMP_pressure;BME280_temperature;BME280_humidity;BME280_pressure;Samples;Min_cycle;Max_cycle;Signal;HPM_P1;HPM_P2
2022/11/26 00:01:37;;;;;;;74.68;18.20;;;;;;;7.84;100.00;101971.22;4970015;28;20034;-75
2022/11/26 00:04:02;;;;;;;67.40;16.10;;;;;;;7.65;100.00;101976.25;4983977;28;20035;-76
2022/11/26 00:06:48;;;;;;;71.50;17.10;;;;;;;7.73;100.00;101979.25;4973823;28;20026;-75
2022/11/26 00:09:20;;;;;;;69.32;18.55;;;;;;;7.70;100.00;101984.88;4967617;28;20034;-75
2022/11/26 00:11:45;;;;;;;84.60;17.60;;;;;;;7.69;100.00;101983.13;4969182;28;20029;-76
2022/11/26 00:14:15;;;;;;;72.68;17.67;;;;;;;7.70;100.00;101992.97;4982266;28;20027;-76
2022/11/26 00:16:42;;;;;;;65.97;17.63;;;;;;;7.56;100.00;101993.09;4961320;28;20035;-75
2022/11/26 00:19:07;;;;;;;69.57;18.15;;;;;;;7.44;100.00;101988.59;4985844;28;20028;-75
2022/11/26 00:21:36;;;;;;;86.05;17.17;;;;;;;7.51;100.00;101989.88;4984809;28;20026;-75
2022/11/26 00:24:03;;;;;;;58.45;16.77;;;;;;;7.73;100.00;101995.41;4977324;28;20030;-75
2022/11/26 00:26:28;;;;;;;63.42;16.00;;;;;;;7.77;100.00;101999.63;4959946;28;20034;-75
2022/11/26 00:28:59;;;;;;;89.28;17.23;;;;;;;7.59;100.00;102009.91;4965880;28;20023;-74
2022/11/26 00:31:25;;;;;;;85.15;18.08;;;;;;;7.56;100.00;102020.03;4967976;28;20049;-75
2022/11/26 00:33:50;;;;;;;69.10;17.52;;;;;;;7.53;100.00;102009.50;4983703;28;20125;-75
2022/11/26 00:36:24;;;;;;;76.85;17.02;;;;;;;7.43;100.00;102013.81;4976668;28;20113;-75
2022/11/26 00:39:10;;;;;;;66.50;16.90;;;;;;;7.53;100.00;102014.88;4971123;28;20410;-74
2022/11/26 00:41:39;;;;;;;78.03;19.55;;;;;;;7.50;100.00;102020.50;4966096;28;20023;-74
2022/11/26 00:44:20;;;;;;;79.47;16.88;;;;;;;7.57;100.00;102022.63;4980794;28;20036;-74
2022/11/26 00:46:46;;;;;;;80.50;16.30;;;;;;;7.51;100.00;102022.22;4962851;28;20035;-74
2022/11/26 00:49:11;;;;;;;65.90;16.50;;;;;;;7.46;100.00;102024.38;4962374;28;20030;-74
2022/11/26 00:51:37;;;;;;;74.63;18.67;;;;;;;7.27;100.00;102025.69;4993860;28;20018;-74
2022/11/26 00:54:04;;;;;;;57.80;14.82;;;;;;;7.48;100.00;102033.19;4968332;28;20035;-74
2022/11/26 00:56:30;;;;;;;82.05;18.58;;;;;;;7.47;100.00;102031.47;4983459;28;20060;-74
2022/11/26 00:58:55;;;;;;;80.68;17.08;;;;;;;7.32;100.00;102034.31;4972087;28;20070;-75
2022/11/26 01:01:23;;;;;;;82.93;19.73;;;;;;;7.19;100.00;102038.84;4982514;28;20479;-74
2022/11/26 01:03:49;;;;;;;101.40;21.42;;;;;;;6.93;100.00;102048.72;4983224;28;20098;-74
2022/11/26 01:06:36;;;;;;;93.75;22.45;;;;;;;6.97;100.00;102054.75;4983636;28;20117;-74
2022/11/26 01:09:04;;;;;;;99.68;21.25;;;;;;;6.89;100.00;102051.72;4988890;28;20101;-74
2022/11/26 01:11:29;;;;;;;75.07;20.80;;;;;;;7.10;100.00;102061.00;4985541;28;20034;-74
2022/11/26 01:13:55;;;;;;;91.43;21.23;;;;;;;6.92;100.00;102067.69;4988738;28;20030;-74
2022/11/26 01:16:25;;;;;;;105.00;20.13;;;;;;;7.04;100.00;102066.81;4969263;28;20018;-74
2022/11/26 01:18:53;;;;;;;86.28;19.90;;;;;;;7.01;100.00;102067.91;4965468;28;20080;-73
2022/11/26 01:21:18;;;;;;;71.70;18.63;;;;;;;6.94;100.00;102076.50;4981003;28;20085;-74
2022/11/26 01:23:44;;;;;;;85.85;20.00;;;;;;;6.97;100.00;102081.69;4956644;28;20019;-73
2022/11/26 01:26:14;;;;;;;106.80;22.33;;;;;;;7.04;100.00;102077.59;4985463;28;20026;-73
2022/11/26 01:28:40;;;;;;;87.00;23.98;;;;;;;6.85;100.00;102082.53;4989805;28;20022;-73
2022/11/26 01:31:12;;;;;;;95.03;27.10;;;;;;;6.65;100.00;102087.44;4990696;28;20041;-73
2022/11/26 01:33:37;;;;;;;96.57;25.13;;;;;;;6.75;100.00;102077.75;4967149;28;20472;-73
2022/11/26 01:36:16;;;;;;;98.90;27.55;;;;;;;6.86;100.00;102085.13;4980489;28;20018;-73
2022/11/26 01:38:42;;;;;;;77.63;23.10;;;;;;;6.92;100.00;102089.22;4980893;28;20034;-74
2022/11/26 01:41:19;;;;;;;98.07;26.85;;;;;;;6.95;100.00;102091.69;4972293;28;20037;-74
2022/11/26 01:43:47;;;;;;;77.90;26.70;;;;;;;6.92;100.00;102091.91;4989240;28;20061;-74
2022/11/26 01:46:19;;;;;;;103.03;26.73;;;;;;;6.79;100.00;102100.81;4972911;28;20018;-74
2022/11/26 01:48:46;;;;;;;83.88;25.58;;;;;;;6.83;100.00;102101.47;4968490;28;20050;-74
2022/11/26 01:51:12;;;;;;;100.15;27.10;;;;;;;6.83;100.00;102100.59;4995573;28;20026;-74
2022/11/26 01:53:49;;;;;;;113.28;30.08;;;;;;;6.67;100.00;102098.97;4988836;28;20025;-74
2022/11/26 01:56:25;;;;;;;104.65;28.70;;;;;;;6.82;100.00;102098.88;4988315;28;20040;-74
2022/11/26 01:58:55;;;;;;;110.07;31.05;;;;;;;6.59;100.00;102106.69;4981157;28;20084;-74
2022/11/26 02:01:20;;;;;;;101.53;32.50;;;;;;;6.62;100.00;102106.47;4971352;28;20053;-73
2022/11/26 02:03:54;;;;;;;118.05;33.97;;;;;;;6.61;100.00;102107.44;4971116;28;20491;-73
2022/11/26 02:06:24;;;;;;;106.95;32.38;;;;;;;6.60;100.00;102116.47;4975550;28;20112;-73
2022/11/26 02:08:49;;;;;;;113.85;34.33;;;;;;;6.46;100.00;102113.84;4968139;28;20026;-73
2022/11/26 02:11:20;;;;;;;135.05;38.30;;;;;;;6.36;100.00;102113.56;4970473;28;20031;-73
2022/11/26 02:13:50;;;;;;;131.48;37.55;;;;;;;6.42;100.00;102120.38;4988022;28;20022;-73
2022/11/26 02:16:24;;;;;;;131.70;39.08;;;;;;;6.32;100.00;102121.94;4970771;28;20486;-73
2022/11/26 02:19:07;;;;;;;132.50;41.00;;;;;;;6.36;100.00;102118.09;4974577;28;20043;-73
2022/11/26 02:21:35;;;;;;;158.13;45.60;;;;;;;6.24;100.00;102120.59;4970527;28;20036;-73
2022/11/26 02:24:26;;;;;;;172.57;46.80;;;;;;;6.36;100.00;102127.03;4969927;28;20116;-72
2022/11/26 02:27:13;;;;;;;158.30;44.00;;;;;;;6.33;100.00;102123.69;4987321;28;20026;-73
2022/11/26 02:30:05;;;;;;;223.63;53.90;;;;;;;6.24;100.00;102131.38;4979541;28;20030;-72
2022/11/26 02:33:19;;;;;;;236.15;53.35;;;;;;;6.34;100.00;102142.41;4970404;28;20080;-73
2022/11/26 02:35:48;;;;;;;187.57;44.65;;;;;;;6.51;100.00;102138.59;4966618;28;20034;-73
2022/11/26 02:38:21;;;;;;;210.00;51.20;;;;;;;6.34;100.00;102141.56;4969987;28;20022;-73
2022/11/26 02:40:46;;;;;;;189.82;48.58;;;;;;;6.31;100.00;102152.50;4971346;28;20018;-72
2022/11/26 02:43:15;;;;;;;194.45;46.47;;;;;;;6.47;100.00;102146.03;4969097;28;20029;-73
2022/11/26 02:45:45;;;;;;;173.95;44.22;;;;;;;6.35;100.00;102157.59;4985578;28;20077;-72
2022/11/26 02:48:18;;;;;;;187.57;51.08;;;;;;;6.43;100.00;102159.78;4969320;28;20037;-72
2022/11/26 02:50:55;;;;;;;262.35;60.85;;;;;;;6.31;100.00;102163.25;4982095;28;20022;-72
2022/11/26 02:53:24;;;;;;;182.18;49.53;;;;;;;6.35;100.00;102164.78;4963056;28;20124;-75
2022/11/26 02:55:59;;;;;;;206.23;49.17;;;;;;;6.48;100.00;102165.72;4962130;28;20014;-72
2022/11/26 02:58:25;;;;;;;205.82;48.40;;;;;;;6.54;100.00;102170.69;4980949;28;20102;-73
2022/11/26 03:00:53;;;;;;;200.85;52.72;;;;;;;6.64;100.00;102170.94;4977569;28;20022;-73
2022/11/26 03:03:24;;;;;;;226.90;51.28;;;;;;;6.61;100.00;102177.41;4988982;28;20034;-73
2022/11/26 03:05:54;;;;;;;215.23;49.90;;;;;;;6.59;100.00;102173.97;4981149;28;20106;-73
2022/11/26 03:08:20;;;;;;;241.50;54.15;;;;;;;6.54;100.00;102176.09;4961749;28;20053;-73
2022/11/26 03:10:45;;;;;;;234.18;53.22;;;;;;;6.54;100.00;102176.09;4974071;28;20058;-73
2022/11/26 03:13:10;;;;;;;243.25;53.95;;;;;;;6.61;100.00;102177.41;4966657;28;20070;-73
2022/11/26 03:15:36;;;;;;;231.57;55.08;;;;;;;6.62;100.00;102184.50;4961458;28;20022;-73
2022/11/26 03:18:01;;;;;;;163.73;44.17;;;;;;;6.57;100.00;102181.25;4978372;28;20033;-73
2022/11/26 03:20:26;;;;;;;172.55;43.90;;;;;;;6.38;100.00;102191.47;4988157;28;20021;-73
2022/11/26 03:22:52;;;;;;;253.57;55.78;;;;;;;6.24;100.00;102192.38;4977984;28;20026;-75
2022/11/26 03:25:18;;;;;;;198.38;46.65;;;;;;;6.40;100.00;102205.72;4971005;28;20029;-75
2022/11/26 03:27:43;;;;;;;152.02;41.63;;;;;;;6.41;100.00;102207.44;4982907;28;20502;-75
2022/11/26 03:30:09;;;;;;;184.70;45.85;;;;;;;6.32;100.00;102208.00;4979130;28;20050;-76
2022/11/26 03:32:35;;;;;;;160.95;42.30;;;;;;;6.28;100.00;102211.88;4982978;28;20013;-73
2022/11/26 03:35:00;;;;;;;209.40;54.45;;;;;;;6.33;100.00;102204.38;4973093;28;20041;-73
2022/11/26 03:37:26;;;;;;;163.88;42.45;;;;;;;6.35;100.00;102208.69;4971273;28;20026;-75
2022/11/26 03:39:51;;;;;;;218.25;49.88;;;;;;;6.32;100.00;102208.00;4967556;28;20045;-73
2022/11/26 03:42:17;;;;;;;177.07;45.72;;;;;;;6.19;100.00;102218.69;4961225;28;20021;-73
2022/11/26 03:44:42;;;;;;;201.98;53.30;;;;;;;6.04;100.00;102219.66;4970127;28;20129;-74
2022/11/26 03:47:08;;;;;;;164.07;44.45;;;;;;;6.03;100.00;102213.41;4980489;28;20037;-74
2022/11/26 03:49:33;;;;;;;170.52;44.75;;;;;;;5.89;100.00;102216.94;4968819;28;20022;-74
2022/11/26 03:51:59;;;;;;;191.20;50.38;;;;;;;6.01;100.00;102206.41;4967749;28;20062;-73
2022/11/26 03:54:25;;;;;;;155.07;43.05;;;;;;;6.04;100.00;102215.13;4967078;28;20022;-74
2022/11/26 03:56:51;;;;;;;202.32;42.28;;;;;;;6.07;100.00;102209.59;4969184;28;20026;-74
2022/11/26 03:59:16;;;;;;;275.17;59.88;;;;;;;6.01;100.00;102215.34;4969573;28;20030;-74
2022/11/26 04:01:41;;;;;;;214.50;46.20;;;;;;;6.30;100.00;102226.09;4969083;28;20026;-74
2022/11/26 04:04:07;;;;;;;159.95;38.63;;;;;;;6.41;100.00;102228.97;4985956;28;20033;-74
2022/11/26 04:06:33;;;;;;;260.80;47.72;;;;;;;6.30;100.00;102221.56;4969495;28;20051;-75
2022/11/26 04:08:58;;;;;;;417.92;65.15;;;;;;;6.11;100.00;102221.88;4981325;28;20034;-75
2022/11/26 04:11:23;;;;;;;314.10;39.28;;;;;;;6.21;100.00;102231.09;4986685;28;20037;-75
2022/11/26 04:13:49;;;;;;;372.27;48.42;;;;;;;6.04;100.00;102225.91;4968869;28;20030;-75
2022/11/26 04:16:14;;;;;;;533.80;70.30;;;;;;;5.97;100.00;102232.63;4967901;28;20068;-73
2022/11/26 04:18:39;;;;;;;581.47;78.63;;;;;;;5.99;100.00;102228.00;4967772;28;20116;-75
2022/11/26 04:21:06;;;;;;;592.03;77.25;;;;;;;6.14;100.00;102232.44;4976491;28;20401;-75
2022/11/26 04:23:32;;;;;;;396.58;55.70;;;;;;;6.28;100.00;102230.72;4964006;28;20030;-75
2022/11/26 04:25:57;;;;;;;557.40;68.22;;;;;;;6.22;100.00;102235.50;4971337;28;20023;-74
2022/11/26 04:28:23;;;;;;;517.15;62.50;;;;;;;6.25;100.00;102235.28;4982187;28;20033;-74
2022/11/26 04:30:48;;;;;;;286.73;47.60;;;;;;;6.52;100.00;102247.97;4977592;28;20026;-74
2022/11/26 04:33:13;;;;;;;379.98;50.63;;;;;;;6.61;100.00;102241.13;4972608;28;20029;-74
2022/11/26 04:35:39;;;;;;;384.60;48.47;;;;;;;6.35;100.00;102240.13;4988450;28;20026;-74
2022/11/26 04:38:26;;;;;;;466.40;48.45;;;;;;;6.46;100.00;102243.00;4988996;23;20037;-75
2022/11/26 04:40:52;;;;;;;515.60;61.08;;;;;;;6.41;100.00;102239.72;5024597;28;20045;-75
2022/11/26 04:43:18;;;;;;;524.55;64.82;;;;;;;6.29;100.00;102245.88;5006329;28;20029;-77
2022/11/26 04:45:43;;;;;;;288.88;47.08;;;;;;;6.24;100.00;102246.16;5008304;28;20028;-76
2022/11/26 04:48:09;;;;;;;361.85;54.35;;;;;;;6.43;100.00;102253.94;4998179;28;20037;-76
2022/11/26 04:50:38;;;;;;;415.52;59.25;;;;;;;6.45;100.00;102257.38;4984620;28;20034;-79
2022/11/26 04:53:03;;;;;;;391.48;55.15;;;;;;;6.48;100.00;102262.59;4977619;28;20101;-78
2022/11/26 04:55:28;;;;;;;513.42;75.57;;;;;;;6.20;100.00;102264.34;4980246;28;20172;-77
2022/11/26 04:57:54;;;;;;;372.55;57.58;;;;;;;5.90;100.00;102271.56;4999632;28;20034;-77
2022/11/26 05:00:20;;;;;;;471.70;67.50;;;;;;;5.83;100.00;102270.22;4991020;28;20026;-77
2022/11/26 05:02:45;;;;;;;396.92;63.72;;;;;;;5.97;100.00;102278.31;4984903;28;20101;-75
2022/11/26 05:05:17;;;;;;;320.15;55.20;;;;;;;5.92;100.00;102275.03;4978240;28;20129;-77
2022/11/26 05:07:42;;;;;;;;;;;;;;;5.95;100.00;102274.88;4983659;28;20089;-76
2022/11/26 05:10:10;;;;;;;494.20;74.53;;;;;;;5.95;100.00;102280.25;4983820;28;20055;-76
2022/11/26 05:12:36;;;;;;;465.45;62.58;;;;;;;6.02;100.00;102286.97;4986918;28;20022;-78
2022/11/26 05:15:02;;;;;;;301.25;54.25;;;;;;;6.11;100.00;102286.41;4985197;28;20026;-79
2022/11/26 05:17:28;;;;;;;281.40;51.15;;;;;;;6.19;100.00;102284.13;4985540;28;20026;-76
2022/11/26 05:19:53;;;;;;;366.30;53.78;;;;;;;6.06;100.00;102293.00;4976860;28;20022;-78
2022/11/26 05:22:19;;;;;;;391.55;63.85;;;;;;;6.20;100.00;102290.38;4977026;28;20038;-80
2022/11/26 05:24:44;;;;;;;323.88;60.22;;;;;;;5.88;100.00;102297.69;4988367;28;20018;-78
2022/11/26 05:27:10;;;;;;;337.15;52.10;;;;;;;5.69;100.00;102279.97;4983242;28;20041;-77
2022/11/26 05:29:38;;;;;;;306.65;60.42;;;;;;;5.66;100.00;102301.63;4984185;28;20032;-77
2022/11/26 05:32:06;;;;;;;362.33;67.05;;;;;;;5.63;100.00;102312.56;4980072;28;20037;-79
2022/11/26 05:34:32;;;;;;;279.42;59.83;;;;;;;5.66;100.00;102301.63;4988433;28;20034;-78
2022/11/26 05:36:57;;;;;;;236.25;49.38;;;;;;;5.98;100.00;102301.56;4982220;28;20026;-76
2022/11/26 05:39:25;;;;;;;217.57;49.00;;;;;;;6.10;100.00;102300.81;4980761;28;20029;-78
2022/11/26 05:41:51;;;;;;;233.45;54.30;;;;;;;6.13;100.00;102305.13;4987076;28;20033;-77
2022/11/26 05:44:16;;;;;;;251.60;56.05;;;;;;;5.90;100.00;102309.19;4977428;28;20036;-77
2022/11/26 05:46:44;;;;;;;227.57;56.58;;;;;;;5.97;100.00;102310.59;4977988;28;20034;-77
2022/11/26 05:49:10;;;;;;;216.95;47.83;;;;;;;6.07;100.00;102311.78;4973796;28;20423;-77
2022/11/26 05:51:35;;;;;;;172.55;43.40;;;;;;;6.12;100.00;102317.69;5000183;28;20098;-76
2022/11/26 05:54:01;;;;;;;258.67;57.50;;;;;;;5.91;100.00;102332.47;4990008;28;20091;-78
2022/11/26 05:56:26;;;;;;;251.75;54.97;;;;;;;5.97;100.00;102343.72;4987966;28;20061;-76
2022/11/26 05:58:52;;;;;;;267.40;60.55;;;;;;;5.81;100.00;102333.94;4981092;28;20049;-78
2022/11/26 06:01:17;;;;;;;403.10;69.68;;;;;;;5.58;100.00;102340.66;4981099;28;20041;-76
2022/11/26 06:03:43;;;;;;;312.15;58.60;;;;;;;5.67;100.00;102335.63;4976294;28;20030;-77
2022/11/26 06:06:08;;;;;;;346.45;61.95;;;;;;;5.71;100.00;102337.16;4984011;28;20113;-79
2022/11/26 06:08:34;;;;;;;334.17;64.32;;;;;;;5.79;100.00;102335.84;4989940;28;20049;-77
2022/11/26 06:10:59;;;;;;;331.75;58.15;;;;;;;5.81;100.00;102336.63;4979482;28;20058;-78
2022/11/26 06:13:25;;;;;;;291.13;58.65;;;;;;;6.02;100.00;102346.13;4980372;28;20045;-79
2022/11/26 06:15:50;;;;;;;301.13;65.40;;;;;;;6.00;100.00;102348.06;4980891;28;20114;-77
2022/11/26 06:18:23;;;;;;;273.65;56.67;;;;;;;6.16;100.00;102348.84;4983709;28;20057;-80
2022/11/26 06:20:49;;;;;;;189.20;47.05;;;;;;;6.32;100.00;102353.28;4976062;28;20018;-77
2022/11/26 06:23:14;;;;;;;395.67;73.43;;;;;;;6.27;100.00;102355.41;4975894;28;20094;-79
2022/11/26 06:25:40;;;;;;;243.18;50.50;;;;;;;6.36;100.00;102361.06;4983955;28;20021;-79
2022/11/26 06:28:06;;;;;;;394.08;74.55;;;;;;;6.02;100.00;102362.25;4974927;28;20188;-77
2022/11/26 06:30:31;;;;;;;301.70;60.05;;;;;;;6.13;100.00;102359.78;4984836;28;20025;-78
2022/11/26 06:32:59;;;;;;;347.77;70.68;;;;;;;6.20;100.00;102355.78;5004335;28;20029;-80
2022/11/26 06:35:25;;;;;;;192.45;46.10;;;;;;;6.35;100.00;102358.47;4977065;28;20025;-76
2022/11/26 06:37:50;;;;;;;274.20;60.70;;;;;;;6.07;100.00;102354.78;4978954;28;20039;-76
2022/11/26 06:40:18;;;;;;;132.63;40.65;;;;;;;6.06;100.00;102362.91;4985502;28;20026;-75
2022/11/26 06:42:51;;;;;;;235.82;54.35;;;;;;;6.15;100.00;102374.00;4986845;28;20026;-78
2022/11/26 06:45:18;;;;;;;266.63;61.45;;;;;;;6.17;100.00;102377.47;4981825;28;20024;-77
2022/11/26 06:47:48;;;;;;;228.48;52.38;;;;;;;6.20;100.00;102376.44;4974244;28;20034;-77
2022/11/26 06:50:16;;;;;;;265.20;60.97;;;;;;;6.28;100.00;102384.88;4983478;28;20045;-78
2022/11/26 06:52:41;;;;;;;218.65;54.67;;;;;;;6.22;100.00;102378.06;4982532;28;20026;-76
2022/11/26 06:55:07;;;;;;;208.27;49.47;;;;;;;6.47;100.00;102385.50;4995851;28;20032;-77
2022/11/26 06:57:33;;;;;;;236.05;54.65;;;;;;;6.50;100.00;102384.44;4979149;28;20026;-79
2022/11/26 06:59:58;;;;;;;255.98;54.88;;;;;;;6.48;100.00;102386.34;4974824;28;20034;-77
2022/11/26 07:02:24;;;;;;;266.08;56.92;;;;;;;6.58;100.00;102387.50;4985935;28;20030;-78
2022/11/26 07:04:49;;;;;;;279.67;59.25;;;;;;;6.46;100.00;102397.22;4982559;28;20017;-78
2022/11/26 07:07:18;;;;;;;230.02;54.88;;;;;;;6.58;100.00;102392.88;4986007;28;20036;-79
2022/11/26 07:09:43;;;;;;;314.73;61.55;;;;;;;6.59;100.00;102405.41;4980901;28;20060;-79
2022/11/26 07:12:09;;;;;;;293.10;60.28;;;;;;;6.67;100.00;102402.22;4983412;28;20050;-76
2022/11/26 07:14:34;;;;;;;380.98;65.00;;;;;;;6.56;100.00;102400.19;4980056;28;20023;-78
2022/11/26 07:17:00;;;;;;;384.85;67.47;;;;;;;6.30;100.00;102411.69;4978352;28;20026;-79
2022/11/26 07:19:44;;;;;;;621.65;84.25;;;;;;;6.13;100.00;102416.28;4984077;28;20061;-77
2022/11/26 07:22:38;;;;;;;421.42;73.88;;;;;;;6.10;100.00;102413.75;4988529;28;20026;-78
2022/11/26 07:25:07;;;;;;;650.28;84.03;;;;;;;5.98;100.00;102414.47;4956825;28;20093;-71
2022/11/26 07:27:49;;;;;;;414.00;71.88;;;;;;;6.12;100.00;102422.59;4990794;28;20034;-71
2022/11/26 07:33:16;;;;;;;597.33;80.95;;;;;;;6.16;100.00;102440.28;4993506;28;20029;-69
2022/11/26 07:35:41;;;;;;;580.95;73.88;;;;;;;6.23;100.00;102447.03;4991600;28;20022;-69
2022/11/26 07:38:07;;;;;;;561.80;84.57;;;;;;;6.19;100.00;102449.97;4979250;28;20077;-70
2022/11/26 07:40:32;;;;;;;755.08;106.68;;;;;;;6.22;100.00;102450.66;4981970;28;20037;-70
2022/11/26 07:43:00;;;;;;;841.03;100.38;;;;;;;6.11;100.00;102455.81;4999149;28;20030;-70
2022/11/26 07:45:26;;;;;;;497.17;79.05;;;;;;;6.15;100.00;102449.31;4996005;28;20105;-71
2022/11/26 07:47:52;;;;;;;589.25;90.18;;;;;;;6.04;100.00;102451.75;4976496;28;20125;-69
2022/11/26 07:50:17;;;;;;;602.30;91.10;;;;;;;5.90;100.00;102448.97;4991791;28;20030;-69
2022/11/26 07:52:43;;;;;;;627.80;92.90;;;;;;;5.81;100.00;102452.22;4997653;28;20022;-69
2022/11/26 07:55:08;;;;;;;767.75;105.13;;;;;;;5.78;100.00;102449.69;4995834;28;20061;-73
2022/11/26 07:57:34;;;;;;;555.72;82.25;;;;;;;5.84;100.00;102443.97;4971956;28;20425;-68
2022/11/26 07:59:59;;;;;;;548.25;91.32;;;;;;;5.70;100.00;102451.00;4981278;28;20068;-68
2022/11/26 08:02:24;;;;;;;433.27;75.13;;;;;;;5.91;100.00;102456.97;4993736;28;20018;-68
2022/11/26 08:04:50;;;;;;;453.17;78.13;;;;;;;6.10;100.00;102450.53;4997497;28;20026;-69
2022/11/26 08:07:15;;;;;;;481.80;83.00;;;;;;;5.99;100.00;102460.09;4978632;28;20029;-71
2022/11/26 08:09:40;;;;;;;673.17;98.38;;;;;;;5.98;100.00;102462.88;4984815;28;20088;-68
2022/11/26 08:12:06;;;;;;;550.13;84.63;;;;;;;6.10;100.00;102467.53;4995574;28;20033;-69
2022/11/26 08:14:31;;;;;;;528.05;81.55;;;;;;;6.11;100.00;102468.41;4977093;28;20054;-70
2022/11/26 08:16:57;;;;;;;555.80;79.28;;;;;;;5.92;100.00;102471.28;4975501;28;20026;-69
2022/11/26 08:19:23;;;;;;;499.80;81.80;;;;;;;5.88;100.00;102472.41;4999910;28;20033;-69
2022/11/26 08:21:48;;;;;;;629.55;86.50;;;;;;;5.97;100.00;102472.75;4974265;28;20034;-68
2022/11/26 08:24:17;;;;;;;512.72;71.72;;;;;;;5.90;100.00;102481.25;4999662;28;20033;-69
2022/11/26 08:26:43;;;;;;;555.97;79.07;;;;;;;5.88;100.00;102473.28;4967473;28;20018;-70
2022/11/26 08:29:09;;;;;;;334.90;63.45;;;;;;;6.02;100.00;102474.31;4981463;28;20039;-68
2022/11/26 08:31:35;;;;;;;360.98;67.93;;;;;;;6.12;100.00;102481.75;4993168;28;20100;-69
2022/11/26 08:34:01;;;;;;;369.67;68.78;;;;;;;6.09;100.00;102475.69;4980263;28;20080;-69
2022/11/26 08:36:28;;;;;;;431.20;78.88;;;;;;;6.25;100.00;102488.13;4995651;28;20026;-68
2022/11/26 08:38:54;;;;;;;400.45;68.90;;;;;;;6.22;100.00;102488.34;4988918;28;20034;-68
2022/11/26 08:41:20;;;;;;;349.65;68.07;;;;;;;6.20;100.00;102489.38;4988329;28;20028;-69
2022/11/26 08:43:45;;;;;;;247.48;57.80;;;;;;;6.25;100.00;102496.19;4995098;28;20334;-69
2022/11/26 08:46:11;;;;;;;382.77;73.53;;;;;;;6.18;100.00;102502.91;4994235;28;20025;-68
2022/11/26 08:48:37;;;;;;;368.75;74.15;;;;;;;6.27;100.00;102489.91;4978184;28;20045;-68
2022/11/26 08:51:09;;;;;;;324.50;68.63;;;;;;;6.36;100.00;102483.97;4980758;28;20026;-68
2022/11/26 08:53:35;;;;;;;;;;;;;;;6.10;100.00;102494.44;4984243;28;20014;-68
2022/11/26 08:56:01;;;;;;;362.95;74.32;;;;;;;6.06;100.00;102490.16;5004022;28;19979;-67
2022/11/26 08:58:27;;;;;;;352.00;70.43;;;;;;;5.91;100.00;102493.75;4977565;28;20181;-69
2022/11/26 09:00:53;;;;;;;261.98;63.97;;;;;;;6.08;100.00;102496.34;5006748;28;20088;-68
2022/11/26 09:03:19;;;;;;;357.48;75.55;;;;;;;6.18;100.00;102500.22;4969476;28;20033;-68
2022/11/26 09:05:45;;;;;;;330.45;60.70;;;;;;;6.27;100.00;102500.66;4972633;28;20018;-67
2022/11/26 09:08:10;;;;;;;429.50;73.13;;;;;;;6.18;100.00;102497.53;4993723;28;20029;-69
2022/11/26 09:10:36;;;;;;;386.23;68.72;;;;;;;6.04;100.00;102500.16;4988884;28;20030;-69
2022/11/26 09:13:02;;;;;;;436.75;73.35;;;;;;;5.97;100.00;102504.16;4976224;28;20026;-69
2022/11/26 09:15:27;;;;;;;431.20;69.00;;;;;;;6.18;100.00;102502.91;5000537;28;20018;-68
2022/11/26 09:17:53;;;;;;;252.70;55.35;;;;;;;6.41;100.00;102492.63;4979089;28;20030;-69
2022/11/26 09:20:19;;;;;;;330.95;63.25;;;;;;;6.30;100.00;102500.47;4988720;28;20034;-68
2022/11/26 09:22:44;;;;;;;285.85;63.40;;;;;;;6.21;100.00;102505.44;4981035;28;20389;-69
2022/11/26 09:25:12;;;;;;;243.80;57.70;;;;;;;6.16;100.00;102504.81;4979658;28;20034;-69
2022/11/26 09:27:37;;;;;;;232.68;57.78;;;;;;;6.29;100.00;102510.34;4983669;28;20029;-67
2022/11/26 09:30:04;;;;;;;184.90;50.13;;;;;;;6.47;100.00;102505.72;4975310;28;20038;-68
2022/11/26 09:32:29;;;;;;;158.70;44.80;;;;;;;6.20;100.00;102509.09;4991937;28;20042;-67
2022/11/26 09:34:54;;;;;;;187.60;50.22;;;;;;;6.21;100.00;102513.50;4996852;28;20022;-69
2022/11/26 09:37:20;;;;;;;177.55;49.63;;;;;;;6.32;100.00;102520.91;5003787;28;20038;-70
2022/11/26 09:39:45;;;;;;;147.15;47.83;;;;;;;6.44;100.00;102525.59;4999621;28;20077;-68
2022/11/26 09:42:28;;;;;;;192.02;51.63;;;;;;;6.19;100.00;102520.81;5003606;28;20021;-68
2022/11/26 09:45:21;;;;;;;223.93;57.60;;;;;;;6.07;100.00;102526.88;4999551;28;20026;-68
2022/11/26 09:47:52;;;;;;;183.77;50.45;;;;;;;6.17;100.00;102533.44;4988585;28;20133;-68
2022/11/26 09:50:30;;;;;;;186.13;52.85;;;;;;;6.41;100.00;102535.69;4996184;28;20029;-68
2022/11/26 09:53:00;;;;;;;189.13;50.80;;;;;;;6.60;100.00;102546.22;4995319;28;20085;-70
2022/11/26 09:55:34;;;;;;;160.48;52.28;;;;;;;6.24;100.00;102534.81;5002792;28;20568;-68
2022/11/26 09:58:20;;;;;;;183.70;58.42;;;;;;;6.32;100.00;102541.56;5005838;28;20114;-68
2022/11/26 10:00:49;;;;;;;156.50;50.45;;;;;;;6.50;100.00;102537.81;4993358;28;20034;-67
2022/11/26 10:03:20;;;;;;;184.48;55.42;;;;;;;6.52;100.00;102535.91;4985700;28;20030;-68
2022/11/26 10:06:04;;;;;;;146.15;51.88;;;;;;;6.57;100.00;102541.88;4996423;28;20022;-69
2022/11/26 10:09:02;;;;;;;129.23;48.45;;;;;;;6.43;100.00;102540.00;4976853;28;20037;-69
2022/11/26 10:11:32;;;;;;;141.18;50.53;;;;;;;6.58;100.00;102548.97;4981972;28;20435;-68
2022/11/26 10:14:19;;;;;;;136.07;46.97;;;;;;;6.79;100.00;102539.63;4982622;28;20026;-70
2022/11/26 10:17:17;;;;;;;104.65;41.85;;;;;;;6.70;100.00;102542.88;5001159;28;20030;-70
2022/11/26 10:20:25;;;;;;;130.25;48.03;;;;;;;6.68;100.00;102550.16;4992612;28;20026;-68
2022/11/26 10:23:12;;;;;;;111.03;44.92;;;;;;;6.64;100.00;102554.00;4986963;28;20026;-71
2022/11/26 10:25:52;;;;;;;129.77;46.80;;;;;;;6.66;100.00;102546.72;4987681;28;20045;-71
2022/11/26 10:30:51;;;;;;;134.98;46.10;;;;;;;6.93;100.00;102556.78;5032087;28;20069;-70
2022/11/26 10:33:17;;;;;;;;;;;;;;;6.76;100.00;102557.78;5023103;28;20029;-69
2022/11/26 10:35:45;;;;;;;129.95;45.22;;;;;;;6.84;100.00;102551.94;5013053;28;19916;-71
2022/11/26 10:38:11;;;;;;;120.50;43.22;;;;;;;6.77;100.00;102555.00;5015250;28;20088;-69
2022/11/26 10:40:57;;;;;;;106.43;43.58;;;;;;;6.84;100.00;102565.41;5033835;23;20126;-72
2022/11/26 10:43:58;;;;;;;106.70;41.53;;;;;;;6.71;100.00;102566.13;4998042;28;20030;-73
2022/11/26 10:47:33;;;;;;;111.05;41.30;;;;;;;7.00;100.00;102566.22;4991600;28;20077;-73
2022/11/26 10:51:27;;;;;;;;;;;;;;;;;;;;;
2022/11/26 11:02:45;;;;;;;;;;;;;;;;;;;;;
2022/11/26 11:06:59;;;;;;;;;;;;;;;;;;;;;
2022/11/26 11:14:09;;;;;;;119.43;42.08;;;;;;;6.92;100.00;102569.38;4881113;29;20067;-74
2022/11/26 11:21:28;;;;;;;107.68;41.10;;;;;;;6.65;100.00;102576.38;4910202;29;20043;-76
2022/11/26 11:31:57;;;;;;;;;;;;;;;;;;;;;
2022/11/26 11:39:27;;;;;;;132.55;43.42;;;;;;;6.79;100.00;102580.03;4832037;23;20046;-73
2022/11/26 11:41:52;;;;;;;92.00;37.88;;;;;;;6.67;100.00;102578.06;4947897;28;20051;-71
2022/11/26 11:44:24;;;;;;;102.10;37.17;;;;;;;6.73;100.00;102580.38;4958270;28;20022;-72
2022/11/26 11:47:07;;;;;;;108.32;36.97;;;;;;;6.87;100.00;102581.38;4957105;28;20014;-72
2022/11/26 11:49:54;;;;;;;108.55;36.72;;;;;;;6.61;100.00;102597.25;4991849;28;20376;-72
2022/11/26 11:53:03;;;;;;;92.07;35.25;;;;;;;6.70;100.00;102585.06;4954308;28;20029;-72
2022/11/26 11:56:02;;;;;;;90.45;33.38;;;;;;;6.83;100.00;102585.19;4887198;28;20288;-72
2022/11/26 11:59:01;;;;;;;97.40;34.30;;;;;;;6.75;100.00;102594.59;4982753;28;20058;-72
2022/11/26 12:01:49;;;;;;;111.22;36.53;;;;;;;6.64;100.00;102588.97;4978344;28;20133;-72